Time;durP1;ratioP1;P1;durP2;ratioP2;P2;SDS_P1;SDS_P2;PMS_P1;PMS_P2;Temp;Humidity;BMP_temperature;BMP_pressure;BME280_temperature;BME280_humidity;BME280_pressure;Samples;Min_cycle;Max_cycle;Signal;HPM_P1;HPM_P2
2024/04/05 00:02:19;;;;;;;15.68;8.93;;;;;;;;;;12916059;23;20419;-81
2024/04/05 00:07:22;;;;;;;14.55;8.70;;;;;;;;;;12914080;23;21061;-80
2024/04/05 00:12:26;;;;;;;13.52;9.07;;;;;;;;;;12912905;23;20372;-80
2024/04/05 00:17:28;;;;;;;14.63;9.00;;;;;;;;;;12914618;23;20418;-80
2024/04/05 00:22:31;;;;;;;12.30;9.10;;;;;;;;;;12915098;23;20874;-80
2024/04/05 00:27:34;;;;;;;12.82;8.80;;;;;;;;;;12914779;23;20391;-81
2024/04/05 00:32:37;;;;;;;15.10;9.90;;;;;;;;;;12914558;23;20453;-80
2024/04/05 00:37:39;;;;;;;15.33;9.00;;;;;;;;;;12914635;23;20394;-81
2024/04/05 00:42:43;;;;;;;14.20;9.70;;;;;;;;;;12914345;23;20410;-81
2024/04/05 00:47:46;;;;;;;20.42;10.20;;;;;;;;;;12915689;23;20364;-81
2024/04/05 00:52:48;;;;;;;15.73;10.15;;;;;;;;;;12915085;23;20373;-81
2024/04/05 00:57:52;;;;;;;17.07;10.23;;;;;;;;;;12912452;23;20422;-81
2024/04/05 01:02:54;;;;;;;15.98;11.50;;;;;;;;;;12914780;23;20396;-81
2024/04/05 01:07:57;;;;;;;15.82;10.68;;;;;;;;;;12914843;23;20372;-81
2024/04/05 01:13:03;;;;;;;20.10;11.10;;;;;;;;;;12914336;23;20426;-81
2024/04/05 01:18:07;;;;;;;16.65;11.43;;;;;;;;;;12913703;23;20418;-81
2024/04/05 01:23:10;;;;;;;16.60;10.40;;;;;;;;;;12913153;23;20388;-81
2024/04/05 01:28:15;;;;;;;15.82;10.48;;;;;;;;;;12914093;23;20372;-81
2024/04/05 01:33:17;;;;;;;18.77;11.03;;;;;;;;;;12913703;23;20372;-81
2024/04/05 01:38:19;;;;;;;17.03;10.57;;;;;;;;;;12913807;23;20376;-81
2024/04/05 01:43:23;;;;;;;16.02;10.82;;;;;;;;;;12913073;23;20751;-81
2024/04/05 01:48:26;;;;;;;17.07;10.73;;;;;;;;;;12912679;23;20458;-81
2024/04/05 01:53:28;;;;;;;17.47;10.83;;;;;;;;;;12913382;23;20891;-81
2024/04/05 01:58:32;;;;;;;18.27;10.90;;;;;;;;;;12912797;23;20360;-80
2024/04/05 02:03:35;;;;;;;17.20;11.20;;;;;;;;;;12912625;23;20853;-81
2024/04/05 02:08:37;;;;;;;18.08;10.90;;;;;;;;;;12913291;23;20368;-81
2024/04/05 02:13:41;;;;;;;17.48;11.00;;;;;;;;;;12912214;23;20842;-82
2024/04/05 02:18:45;;;;;;;16.93;10.43;;;;;;;;;;12913288;23;20425;-81
2024/04/05 02:23:48;;;;;;;16.90;11.25;;;;;;;;;;12934372;23;20430;-81
2024/04/05 02:28:52;;;;;;;17.38;11.07;;;;;;;;;;12913329;23;20418;-81
2024/04/05 02:33:54;;;;;;;18.93;11.73;;;;;;;;;;12912028;23;20406;-81
2024/04/05 02:38:57;;;;;;;18.97;11.53;;;;;;;;;;12912543;23;20906;-81
2024/04/05 02:44:01;;;;;;;19.17;11.70;;;;;;;;;;12911742;23;20414;-81
2024/04/05 02:49:03;;;;;;;17.00;12.20;;;;;;;;;;12913821;23;20391;-81
2024/04/05 02:54:06;;;;;;;17.60;11.25;;;;;;;;;;12916690;23;20368;-81
2024/04/05 02:59:10;;;;;;;19.93;12.57;;;;;;;;;;12917134;23;20360;-81
2024/04/05 03:04:12;;;;;;;22.90;12.52;;;;;;;;;;12915907;23;20712;-80
2024/04/05 03:09:15;;;;;;;21.13;12.52;;;;;;;;;;12916944;23;20430;-81
2024/04/05 03:14:19;;;;;;;19.88;12.57;;;;;;;;;;12916360;23;20364;-82
2024/04/05 03:19:21;;;;;;;20.42;13.07;;;;;;;;;;12917079;23;20376;-81
2024/04/05 03:24:23;;;;;;;19.05;13.02;;;;;;;;;;12916706;23;20384;-80
2024/04/05 03:29:27;;;;;;;24.13;13.48;;;;;;;;;;12916221;23;20391;-81
2024/04/05 03:34:30;;;;;;;22.43;13.90;;;;;;;;;;12915982;23;20372;-81
2024/04/05 03:39:32;;;;;;;29.90;16.33;;;;;;;;;;12916286;23;20414;-81
2024/04/05 03:44:36;;;;;;;25.17;16.02;;;;;;;;;;12916296;23;20383;-81
2024/04/05 03:49:38;;;;;;;25.23;16.00;;;;;;;;;;12916478;23;20438;-81
2024/04/05 03:54:41;;;;;;;24.75;16.35;;;;;;;;;;12916336;23;20368;-81
2024/04/05 03:59:46;;;;;;;26.00;16.30;;;;;;;;;;12915583;23;20373;-81
2024/04/05 04:04:49;;;;;;;27.52;16.80;;;;;;;;;;12916542;23;20852;-81
2024/04/05 04:09:51;;;;;;;26.17;16.30;;;;;;;;;;12915496;23;20446;-81
2024/04/05 04:14:55;;;;;;;25.87;16.63;;;;;;;;;;12914816;23;20369;-81
2024/04/05 04:20:00;;;;;;;28.83;16.60;;;;;;;;;;12915684;23;20422;-81
2024/04/05 04:25:03;;;;;;;24.42;16.58;;;;;;;;;;12914456;23;20388;-81
2024/04/05 04:30:09;;;;;;;27.07;15.60;;;;;;;;;;12915795;23;20369;-81
2024/04/05 04:35:12;;;;;;;23.00;15.07;;;;;;;;;;12915546;23;20421;-81
2024/04/05 04:40:14;;;;;;;23.73;14.50;;;;;;;;;;12915909;23;20422;-81
2024/04/05 04:45:18;;;;;;;24.93;15.37;;;;;;;;;;12913701;23;20938;-81
2024/04/05 04:50:20;;;;;;;23.30;15.75;;;;;;;;;;12911556;23;20372;-80
2024/04/05 04:55:23;;;;;;;23.02;16.45;;;;;;;;;;12934992;23;20360;-81
2024/04/05 05:00:27;;;;;;;24.20;15.95;;;;;;;;;;12912514;23;20361;-81
2024/04/05 05:05:29;;;;;;;25.95;16.70;;;;;;;;;;12913455;23;20415;-81
2024/04/05 05:10:32;;;;;;;25.50;16.13;;;;;;;;;;12911493;23;20398;-82
2024/04/05 05:15:36;;;;;;;26.83;16.50;;;;;;;;;;12910253;23;20458;-81
2024/04/05 05:20:46;;;;;;;24.35;15.75;;;;;;;;;;12907549;23;20836;-81
2024/04/05 05:25:49;;;;;;;24.37;17.00;;;;;;;;;;12911338;23;20458;-81
2024/04/05 05:30:53;;;;;;;34.58;18.48;;;;;;;;;;12934321;23;20364;-82
2024/04/05 05:35:56;;;;;;;28.20;17.67;;;;;;;;;;12911560;23;20418;-80
2024/04/05 05:40:58;;;;;;;28.67;17.98;;;;;;;;;;12908597;23;20426;-79
2024/04/05 05:46:02;;;;;;;31.35;18.33;;;;;;;;;;12905933;23;20384;-80
2024/04/05 05:51:05;;;;;;;31.43;19.50;;;;;;;;;;12905719;23;20368;-81
2024/04/05 05:56:08;;;;;;;33.42;19.27;;;;;;;;;;12905715;23;20878;-81
2024/04/05 06:01:12;;;;;;;31.52;18.55;;;;;;;;;;12909450;23;20369;-81
2024/04/05 06:06:14;;;;;;;34.00;18.83;;;;;;;;;;12909383;23;20444;-80
2024/04/05 06:11:17;;;;;;;35.30;20.42;;;;;;;;;;12911601;23;20364;-81
2024/04/05 06:16:21;;;;;;;34.67;18.98;;;;;;;;;;12912808;23;20376;-81
2024/04/05 06:21:24;;;;;;;32.53;19.80;;;;;;;;;;12912187;23;20418;-79
2024/04/05 06:26:26;;;;;;;33.87;18.17;;;;;;;;;;12913731;23;20379;-81
2024/04/05 06:31:30;;;;;;;30.30;18.80;;;;;;;;;;12917850;23;20380;-81
2024/04/05 06:36:32;;;;;;;28.50;18.45;;;;;;;;;;12916717;23;20369;-80
2024/04/05 06:41:35;;;;;;;33.75;19.33;;;;;;;;;;12917563;23;20441;-81
2024/04/05 06:46:39;;;;;;;37.10;18.92;;;;;;;;;;12917693;23;20410;-81
2024/04/05 06:51:41;;;;;;;27.80;17.92;;;;;;;;;;12916664;23;20391;-82
2024/04/05 06:56:44;;;;;;;28.73;18.65;;;;;;;;;;12916445;23;20368;-81
2024/04/05 07:01:47;;;;;;;30.23;18.17;;;;;;;;;;12915404;23;20368;-81
2024/04/05 07:06:50;;;;;;;28.70;17.70;;;;;;;;;;12916235;23;20384;-80
2024/04/05 07:11:53;;;;;;;29.73;18.25;;;;;;;;;;12915903;23;20450;-80
2024/04/05 07:16:57;;;;;;;29.83;18.60;;;;;;;;;;12915815;23;20368;-80
2024/04/05 07:21:59;;;;;;;31.10;18.17;;;;;;;;;;12916399;23;20433;-79
2024/04/05 07:27:02;;;;;;;30.42;18.10;;;;;;;;;;12916263;23;20756;-81
2024/04/05 07:32:07;;;;;;;30.02;18.58;;;;;;;;;;12915704;23;20368;-81
2024/04/05 07:37:10;;;;;;;29.15;17.20;;;;;;;;;;12916872;23;20441;-80
2024/04/05 07:42:12;;;;;;;26.60;16.50;;;;;;;;;;12917667;23;20442;-81
2024/04/05 07:47:16;;;;;;;26.55;15.93;;;;;;;;;;12915658;23;20389;-80
2024/04/05 07:52:20;;;;;;;26.87;14.47;;;;;;;;;;12916022;23;20394;-80
2024/04/05 07:57:22;;;;;;;20.38;12.95;;;;;;;;;;12888216;23;20434;-80
2024/04/05 08:02:29;;;;;;;17.08;11.25;;;;;;;;;;12913410;23;20913;-80
2024/04/05 08:07:31;;;;;;;18.37;10.80;;;;;;;;;;12913893;23;20423;-81
2024/04/05 08:12:34;;;;;;;16.60;9.03;;;;;;;;;;12915649;23;20384;-81
2024/04/05 08:17:38;;;;;;;14.93;8.23;;;;;;;;;;12916284;23;20368;-80
2024/04/05 08:22:41;;;;;;;13.35;7.88;;;;;;;;;;12915131;23;20372;-80
2024/04/05 08:27:45;;;;;;;13.13;8.73;;;;;;;;;;12915635;23;20434;-81
2024/04/05 08:32:48;;;;;;;13.10;8.47;;;;;;;;;;12914810;23;20414;-80
2024/04/05 08:37:51;;;;;;;15.77;9.57;;;;;;;;;;12916034;23;20372;-80
2024/04/05 08:42:57;;;;;;;15.03;8.47;;;;;;;;;;12914757;23;20368;-80
2024/04/05 08:48:05;;;;;;;14.63;8.63;;;;;;;;;;12913505;23;20934;-80
2024/04/05 08:53:08;;;;;;;13.27;8.53;;;;;;;;;;12914801;23;20365;-80
2024/04/05 08:58:13;;;;;;;15.90;9.25;;;;;;;;;;12914400;23;20365;-80
2024/04/05 09:03:17;;;;;;;17.02;8.88;;;;;;;;;;12913409;23;20372;-80
2024/04/05 09:08:21;;;;;;;13.73;9.13;;;;;;;;;;12914689;23;20365;-80
2024/04/05 09:13:24;;;;;;;15.68;9.27;;;;;;;;;;12914092;23;20602;-82
2024/04/05 09:18:28;;;;;;;19.10;10.23;;;;;;;;;;12914390;23;20407;-82
2024/04/05 09:23:31;;;;;;;14.47;9.10;;;;;;;;;;12913316;23;20479;-82
2024/04/05 09:28:33;;;;;;;15.80;9.30;;;;;;;;;;12914374;23;20414;-81
2024/04/05 09:33:38;;;;;;;15.07;9.30;;;;;;;;;;12958276;22;20387;-82
2024/04/05 09:38:42;;;;;;;16.00;8.82;;;;;;;;;;12976157;22;20359;-81
2024/04/05 09:43:46;;;;;;;12.30;8.70;;;;;;;;;;12975365;22;20378;-81
2024/04/05 09:48:51;;;;;;;14.50;8.97;;;;;;;;;;12976903;22;20371;-80
2024/04/05 09:53:55;;;;;;;13.00;8.32;;;;;;;;;;12977604;22;20370;-81
2024/04/05 09:59:00;;;;;;;11.75;8.60;;;;;;;;;;12972537;22;20362;-82
2024/04/05 10:04:04;;;;;;;13.67;9.00;;;;;;;;;;12975547;22;20424;-81
2024/04/05 10:09:16;;;;;;;11.90;9.32;;;;;;;;;;12975165;22;20679;-82
2024/04/05 10:14:22;;;;;;;15.50;9.97;;;;;;;;;;12975888;22;20358;-80
2024/04/05 10:19:30;;;;;;;13.70;9.90;;;;;;;;;;12974979;22;20362;-81
2024/04/05 10:24:33;;;;;;;15.43;9.68;;;;;;;;;;12975742;22;20382;-82
2024/04/05 10:29:36;;;;;;;12.45;9.93;;;;;;;;;;12996612;22;20472;-82
2024/04/05 10:34:39;;;;;;;16.05;10.30;;;;;;;;;;12974048;22;20447;-81
2024/04/05 10:39:42;;;;;;;15.02;9.70;;;;;;;;;;12974980;22;20436;-81
2024/04/05 10:44:55;;;;;;;13.77;11.13;;;;;;;;;;12973921;22;20382;-82
2024/04/05 10:50:05;;;;;;;16.17;10.93;;;;;;;;;;12974104;22;20432;-81
2024/04/05 10:55:10;;;;;;;15.00;11.40;;;;;;;;;;12973800;22;20363;-81
2024/04/05 11:00:14;;;;;;;19.23;11.50;;;;;;;;;;12975854;22;20894;-82
2024/04/05 11:05:21;;;;;;;13.67;12.00;;;;;;;;;;12974392;22;20387;-81
2024/04/05 11:10:24;;;;;;;14.98;11.80;;;;;;;;;;12972470;22;20440;-82
2024/04/05 11:15:27;;;;;;;13.93;11.15;;;;;;;;;;12977104;22;20881;-82
2024/04/05 11:20:32;;;;;;;14.13;10.53;;;;;;;;;;12999258;22;20437;-80
2024/04/05 11:25:34;;;;;;;16.58;11.25;;;;;;;;;;12977197;22;20404;-81
2024/04/05 11:30:40;;;;;;;18.05;12.02;;;;;;;;;;12976041;22;20371;-82
2024/04/05 11:35:45;;;;;;;14.95;11.48;;;;;;;;;;12969985;22;20374;-82
2024/04/05 11:40:48;;;;;;;18.70;12.50;;;;;;;;;;12971311;22;20379;-81
2024/04/05 11:45:50;;;;;;;15.27;10.88;;;;;;;;;;12970701;22;20379;-83
2024/04/05 11:50:55;;;;;;;15.27;11.50;;;;;;;;;;12970475;22;20822;-82
2024/04/05 11:55:58;;;;;;;15.18;11.40;;;;;;;;;;12971475;22;20371;-82
2024/04/05 12:01:01;;;;;;;13.07;9.90;;;;;;;;;;12971470;22;20400;-80
2024/04/05 12:06:05;;;;;;;12.27;8.18;;;;;;;;;;12971560;22;20394;-82
2024/04/05 12:11:08;;;;;;;12.88;7.50;;;;;;;;;;12975319;22;20367;-82
2024/04/05 12:16:10;;;;;;;13.07;8.30;;;;;;;;;;12978009;22;20397;-81
2024/04/05 12:21:14;;;;;;;16.27;9.20;;;;;;;;;;12998745;22;20389;-80
2024/04/05 12:26:17;;;;;;;17.13;9.00;;;;;;;;;;12975348;22;20386;-81
2024/04/05 12:31:19;;;;;;;16.33;7.85;;;;;;;;;;12972999;22;21089;-80
2024/04/05 12:36:23;;;;;;;10.98;8.05;;;;;;;;;;12963458;22;20363;-80
2024/04/05 12:41:26;;;;;;;11.32;7.55;;;;;;;;;;12965495;22;20405;-79
2024/04/05 12:46:29;;;;;;;13.85;9.65;;;;;;;;;;12968267;22;20383;-80
2024/04/05 12:51:33;;;;;;;13.00;8.83;;;;;;;;;;12939659;22;20388;-80
2024/04/05 12:56:35;;;;;;;15.57;8.88;;;;;;;;;;12903702;23;20856;-80
2024/04/05 13:01:37;;;;;;;11.25;7.72;;;;;;;;;;12901294;23;20372;-81
2024/04/05 13:06:41;;;;;;;11.88;7.70;;;;;;;;;;12903499;23;20779;-79
2024/04/05 13:11:43;;;;;;;11.57;7.53;;;;;;;;;;12904749;23;20372;-80
2024/04/05 13:16:47;;;;;;;12.00;7.70;;;;;;;;;;12905062;23;20882;-81
2024/04/05 13:21:51;;;;;;;12.00;8.05;;;;;;;;;;12904446;23;20434;-80
2024/04/05 13:26:54;;;;;;;11.75;7.57;;;;;;;;;;12901760;23;20385;-81
2024/04/05 13:31:56;;;;;;;14.03;8.00;;;;;;;;;;12899678;23;20368;-82
2024/04/05 13:37:00;;;;;;;11.38;8.23;;;;;;;;;;12897508;23;20921;-82
2024/04/05 13:42:03;;;;;;;11.55;7.63;;;;;;;;;;12901099;23;20365;-83
2024/04/05 13:47:06;;;;;;;12.13;7.40;;;;;;;;;;12903158;23;20380;-82
2024/04/05 13:52:10;;;;;;;12.98;7.68;;;;;;;;;;12899589;23;20378;-83
2024/04/05 13:57:13;;;;;;;15.63;7.70;;;;;;;;;;12898460;23;20907;-83
2024/04/05 14:02:15;;;;;;;9.23;7.23;;;;;;;;;;12898823;23;20848;-84
2024/04/05 14:07:19;;;;;;;10.45;7.38;;;;;;;;;;12905878;23;20458;-83
2024/04/05 14:12:22;;;;;;;10.27;7.70;;;;;;;;;;12907009;23;20430;-82
2024/04/05 14:17:24;;;;;;;9.70;7.30;;;;;;;;;;12908414;23;20364;-83
2024/04/05 14:22:28;;;;;;;9.70;7.75;;;;;;;;;;12910089;23;20394;-83
2024/04/05 14:27:31;;;;;;;8.73;7.10;;;;;;;;;;12910538;23;20387;-82
2024/04/05 14:32:33;;;;;;;11.10;7.30;;;;;;;;;;12912118;23;20832;-81
2024/04/05 14:37:37;;;;;;;12.02;7.43;;;;;;;;;;12910198;23;21283;-82
2024/04/05 14:42:39;;;;;;;13.37;6.93;;;;;;;;;;12911132;23;20910;-82
2024/04/05 14:47:42;;;;;;;11.27;6.90;;;;;;;;;;12910861;23;20384;-82
2024/04/05 14:52:46;;;;;;;10.20;6.72;;;;;;;;;;12912901;23;20909;-82
2024/04/05 14:57:48;;;;;;;10.35;6.95;;;;;;;;;;12915345;23;20364;-82
2024/04/05 15:02:51;;;;;;;8.88;7.25;;;;;;;;;;12915217;23;20368;-82
2024/04/05 15:07:54;;;;;;;12.90;7.07;;;;;;;;;;12914358;23;20388;-83
2024/04/05 15:12:57;;;;;;;11.20;7.73;;;;;;;;;;12907357;23;20376;-82
2024/04/05 15:18:00;;;;;;;9.88;6.78;;;;;;;;;;12934276;23;20357;-82
2024/04/05 15:23:04;;;;;;;10.18;6.82;;;;;;;;;;12911916;23;20364;-81
2024/04/05 15:28:08;;;;;;;9.23;7.18;;;;;;;;;;12907007;23;20446;-82
2024/04/05 15:33:10;;;;;;;10.15;6.20;;;;;;;;;;12882865;23;20430;-81
2024/04/05 15:38:14;;;;;;;8.52;5.82;;;;;;;;;;12902995;22;20460;-82
2024/04/05 15:43:16;;;;;;;7.20;5.65;;;;;;;;;;12901172;23;20376;-82
2024/04/05 15:48:19;;;;;;;9.97;5.50;;;;;;;;;;12901084;23;20697;-81
2024/04/05 15:53:24;;;;;;;9.73;5.43;;;;;;;;;;12898313;23;20442;-81
2024/04/05 15:58:28;;;;;;;9.80;5.40;;;;;;;;;;12900760;23;20410;-81
2024/04/05 16:03:31;;;;;;;8.45;4.97;;;;;;;;;;12878194;23;20396;-82
2024/04/05 16:08:35;;;;;;;9.47;6.13;;;;;;;;;;12901347;23;20392;-81
2024/04/05 16:13:37;;;;;;;8.60;5.25;;;;;;;;;;12902987;23;20558;-81
2024/04/05 16:18:40;;;;;;;8.75;6.13;;;;;;;;;;12876092;22;20365;-81
2024/04/05 16:23:45;;;;;;;12.18;5.57;;;;;;;;;;12901593;22;20437;-81
2024/04/05 16:28:48;;;;;;;7.67;4.97;;;;;;;;;;12902974;22;20380;-81
2024/04/05 16:33:51;;;;;;;7.35;5.03;;;;;;;;;;12902884;22;20847;-82
2024/04/05 16:38:55;;;;;;;8.70;4.68;;;;;;;;;;12900269;22;20376;-81
2024/04/05 16:43:57;;;;;;;9.48;4.57;;;;;;;;;;12897222;22;20392;-81
2024/04/05 16:48:59;;;;;;;5.90;4.40;;;;;;;;;;12896683;22;20388;-81
2024/04/05 16:54:06;;;;;;;6.18;4.03;;;;;;;;;;12956452;22;20387;-81
2024/04/05 16:59:09;;;;;;;6.63;3.90;;;;;;;;;;12963590;22;20379;-82
2024/04/05 17:04:16;;;;;;;6.87;4.67;;;;;;;;;;12962893;22;21188;-81
2024/04/05 17:09:20;;;;;;;7.53;4.35;;;;;;;;;;12969818;22;20386;-81
2024/04/05 17:14:22;;;;;;;9.32;4.28;;;;;;;;;;12968842;22;20363;-81
2024/04/05 17:19:24;;;;;;;7.33;4.43;;;;;;;;;;12970146;22;20362;-82
2024/04/05 17:24:31;;;;;;;10.63;5.80;;;;;;;;;;12970595;22;20415;-82
2024/04/05 17:29:33;;;;;;;8.02;4.97;;;;;;;;;;12971677;22;20433;-81
2024/04/05 17:34:35;;;;;;;8.20;4.90;;;;;;;;;;12968589;22;20370;-82
2024/04/05 17:39:39;;;;;;;10.07;5.00;;;;;;;;;;12968793;22;20443;-82
2024/04/05 17:44:42;;;;;;;8.68;6.15;;;;;;;;;;12992987;22;20719;-82
2024/04/05 17:49:45;;;;;;;17.67;9.20;;;;;;;;;;12969635;22;20382;-83
2024/04/05 17:54:49;;;;;;;17.00;11.20;;;;;;;;;;12972102;22;20422;-81
2024/04/05 17:59:51;;;;;;;15.20;10.20;;;;;;;;;;12968457;22;20362;-84
2024/04/05 18:04:55;;;;;;;17.25;10.68;;;;;;;;;;12973558;22;20842;-82
2024/04/05 18:09:59;;;;;;;14.60;10.85;;;;;;;;;;12970654;22;20421;-83
2024/04/05 18:15:05;;;;;;;20.92;12.43;;;;;;;;;;12974654;22;20362;-83
2024/04/05 18:20:08;;;;;;;18.60;12.50;;;;;;;;;;12970584;22;20834;-82
2024/04/05 18:25:13;;;;;;;21.35;14.07;;;;;;;;;;12967323;22;20392;-84
2024/04/05 18:30:15;;;;;;;21.75;14.27;;;;;;;;;;12965508;22;20413;-85
2024/04/05 18:35:18;;;;;;;20.80;15.05;;;;;;;;;;12966897;22;20382;-83
2024/04/05 18:40:22;;;;;;;21.92;14.98;;;;;;;;;;12966253;22;20965;-82
2024/04/05 18:45:27;;;;;;;21.42;15.13;;;;;;;;;;12967841;22;20359;-83
2024/04/05 18:50:30;;;;;;;21.45;14.82;;;;;;;;;;12967434;22;20436;-83
2024/04/05 18:55:37;;;;;;;22.33;14.63;;;;;;;;;;12940033;22;20378;-81
2024/04/05 19:00:39;;;;;;;23.30;15.07;;;;;;;;;;12964707;22;20413;-82
2024/04/05 19:05:42;;;;;;;27.05;16.00;;;;;;;;;;12964346;22;20375;-82
2024/04/05 19:10:46;;;;;;;25.80;17.45;;;;;;;;;;12965832;22;20386;-82
2024/04/05 19:15:51;;;;;;;25.13;16.95;;;;;;;;;;12966482;22;20428;-81
2024/04/05 19:20:54;;;;;;;26.38;18.65;;;;;;;;;;12960021;22;20374;-82
2024/04/05 19:25:58;;;;;;;28.48;18.65;;;;;;;;;;12961982;22;20732;-81
2024/04/05 19:31:01;;;;;;;28.03;17.97;;;;;;;;;;12980608;22;20390;-82
2024/04/05 19:36:04;;;;;;;24.85;16.70;;;;;;;;;;12968682;22;20382;-83
2024/04/05 19:41:08;;;;;;;27.50;17.25;;;;;;;;;;12968971;22;20404;-82
2024/04/05 19:46:11;;;;;;;26.97;17.60;;;;;;;;;;12970194;22;20424;-82
2024/04/05 19:51:13;;;;;;;28.43;17.70;;;;;;;;;;12968613;22;20603;-81
2024/04/05 19:56:18;;;;;;;28.15;17.13;;;;;;;;;;12972015;22;20408;-81
2024/04/05 20:01:20;;;;;;;28.88;19.45;;;;;;;;;;12969918;22;20440;-82
2024/04/05 20:06:23;;;;;;;29.10;19.95;;;;;;;;;;12970220;22;20382;-81
2024/04/05 20:11:27;;;;;;;33.85;22.38;;;;;;;;;;12965674;22;20375;-82
2024/04/05 20:16:29;;;;;;;39.00;23.90;;;;;;;;;;12968711;22;20375;-82
2024/04/05 20:21:32;;;;;;;44.25;27.33;;;;;;;;;;12967766;22;20382;-82
2024/04/05 20:26:36;;;;;;;41.20;25.83;;;;;;;;;;12968399;22;20451;-83
2024/04/05 20:36:58;;;;;;;41.92;25.92;;;;;;;;;;12989177;22;20912;-82
2024/04/05 20:42:03;;;;;;;42.08;25.65;;;;;;;;;;12970031;22;20730;-82
2024/04/05 20:47:05;;;;;;;44.00;27.13;;;;;;;;;;12970985;22;20371;-82
2024/04/05 20:52:08;;;;;;;44.87;26.63;;;;;;;;;;12969002;22;20371;-82
2024/04/05 20:57:12;;;;;;;43.17;26.67;;;;;;;;;;12966242;22;20370;-83
2024/04/05 21:02:15;;;;;;;45.10;28.52;;;;;;;;;;12969267;22;20375;-81
2024/04/05 21:07:18;;;;;;;44.10;28.00;;;;;;;;;;12967327;22;20390;-83
2024/04/05 21:12:22;;;;;;;47.85;28.73;;;;;;;;;;12962948;22;20382;-83
2024/04/05 21:17:25;;;;;;;44.80;28.50;;;;;;;;;;12964728;22;20382;-84
2024/04/05 21:22:27;;;;;;;45.53;27.65;;;;;;;;;;12967660;22;20379;-83
2024/04/05 21:27:31;;;;;;;42.47;28.52;;;;;;;;;;12967640;22;20456;-83
2024/04/05 21:32:34;;;;;;;44.30;26.85;;;;;;;;;;12967925;22;20842;-83
2024/04/05 21:37:36;;;;;;;42.97;26.83;;;;;;;;;;12968507;22;20404;-83
2024/04/05 21:42:40;;;;;;;38.88;25.05;;;;;;;;;;12964853;22;20474;-82
2024/04/05 21:47:43;;;;;;;42.15;26.20;;;;;;;;;;12964953;22;20440;-83
2024/04/05 21:52:45;;;;;;;35.58;25.02;;;;;;;;;;12960671;22;20390;-83
2024/04/05 21:58:00;;;;;;;39.40;23.98;;;;;;;;;;12962717;22;20382;-82
2024/04/05 22:03:02;;;;;;;36.33;24.20;;;;;;;;;;12968712;22;20362;-82
2024/04/05 22:08:07;;;;;;;35.15;22.92;;;;;;;;;;12970925;22;20468;-83
2024/04/05 22:13:12;;;;;;;36.27;22.90;;;;;;;;;;12970708;22;20362;-82
2024/04/05 22:18:14;;;;;;;34.70;21.63;;;;;;;;;;12970535;22;20408;-82
2024/04/05 22:23:17;;;;;;;33.17;21.47;;;;;;;;;;12975808;22;20526;-82
2024/04/05 22:28:21;;;;;;;32.33;21.70;;;;;;;;;;12975474;22;20390;-82
2024/04/05 22:33:24;;;;;;;33.75;21.33;;;;;;;;;;12975668;22;20366;-82
2024/04/05 22:38:26;;;;;;;35.20;21.83;;;;;;;;;;12972339;22;20676;-82
2024/04/05 22:43:30;;;;;;;35.08;21.88;;;;;;;;;;12974608;22;20884;-83
2024/04/05 22:48:33;;;;;;;35.00;22.87;;;;;;;;;;12972173;22;20452;-83
2024/04/05 22:53:35;;;;;;;32.28;21.75;;;;;;;;;;12993655;22;20687;-82
2024/04/05 22:58:39;;;;;;;33.88;21.85;;;;;;;;;;12972993;22;20392;-82
2024/04/05 23:03:42;;;;;;;36.15;22.88;;;;;;;;;;12974312;22;20393;-82
2024/04/05 23:08:44;;;;;;;35.78;23.63;;;;;;;;;;12977388;22;20730;-83
2024/04/05 23:13:48;;;;;;;35.57;24.53;;;;;;;;;;12977542;22;20358;-82
2024/04/05 23:18:50;;;;;;;40.45;24.30;;;;;;;;;;12977714;22;20362;-83
2024/04/05 23:23:53;;;;;;;37.80;24.47;;;;;;;;;;12978106;22;20439;-82
2024/04/05 23:28:56;;;;;;;38.27;24.47;;;;;;;;;;12979352;22;20436;-83
2024/04/05 23:33:59;;;;;;;40.90;25.15;;;;;;;;;;12979974;22;20367;-82
2024/04/05 23:39:01;;;;;;;42.57;26.10;;;;;;;;;;12978469;22;20366;-82
2024/04/05 23:44:05;;;;;;;44.00;26.60;;;;;;;;;;12977738;22;20396;-82
2024/04/05 23:49:08;;;;;;;40.72;26.25;;;;;;;;;;12976415;22;20382;-82
2024/04/05 23:54:10;;;;;;;40.17;26.85;;;;;;;;;;12974111;22;20941;-82
2024/04/05 23:59:14;;;;;;;38.43;26.90;;;;;;;;;;12974898;22;20733;-82
